Time;durP1;ratioP1;P1;durP2;ratioP2;P2;SDS_P1;SDS_P2;PMS_P1;PMS_P2;Temp;Humidity;BMP_temperature;BMP_pressure;BME280_temperature;BME280_humidity;BME280_pressure;Samples;Min_cycle;Max_cycle;Signal;HPM_P1;HPM_P2
2021/09/08 00:01:01;;;;;;;5.73;4.77;;;30.30;54.60;;;;;;5123308;28;21268;-42
2021/09/08 00:03:34;;;;;;;5.00;4.60;;;30.40;53.70;;;;;;5122599;28;20451;-42
2021/09/08 00:06:05;;;;;;;6.23;5.13;;;30.60;53.10;;;;;;5122554;28;20463;-41
2021/09/08 00:08:37;;;;;;;6.07;4.97;;;30.30;54.50;;;;;;5122738;28;20471;-42
2021/09/08 00:11:08;;;;;;;6.30;5.20;;;30.00;54.60;;;;;;5122697;28;20445;-42
2021/09/08 00:13:39;;;;;;;5.77;5.27;;;30.00;55.80;;;;;;5122692;28;20460;-42
2021/09/08 00:16:10;;;;;;;5.83;5.33;;;30.00;55.60;;;;;;5123009;28;20866;-42
2021/09/08 00:18:43;;;;;;;5.03;4.63;;;30.10;54.40;;;;;;5122584;28;20479;-42
2021/09/08 00:21:14;;;;;;;5.27;4.87;;;30.10;57.50;;;;;;5122887;28;20451;-42
2021/09/08 00:23:45;;;;;;;5.60;5.13;;;30.00;58.00;;;;;;5122437;28;20475;-42
2021/09/08 00:26:15;;;;;;;5.97;5.37;;;29.80;58.70;;;;;;5122504;28;20996;-42
2021/09/08 00:28:47;;;;;;;5.67;5.17;;;29.80;57.20;;;;;;5122563;28;20427;-42
2021/09/08 00:31:19;;;;;;;6.47;5.70;;;29.80;57.50;;;;;;5127275;28;20530;-42
2021/09/08 00:33:51;;;;;;;5.83;5.33;;;29.80;57.60;;;;;;5143151;28;20463;-42
2021/09/08 00:36:22;;;;;;;6.17;5.57;;;29.80;56.60;;;;;;5141402;28;20451;-42
2021/09/08 00:38:53;;;;;;;6.47;5.20;;;29.60;58.60;;;;;;5141561;28;20506;-42
2021/09/08 00:41:24;;;;;;;5.97;5.47;;;29.50;59.60;;;;;;5139597;27;20464;-42
2021/09/08 00:43:55;;;;;;;6.03;5.50;;;29.40;59.90;;;;;;5141341;27;20448;-42
2021/09/08 00:46:26;;;;;;;6.30;5.37;;;29.50;56.90;;;;;;5143006;28;20463;-42
2021/09/08 00:48:59;;;;;;;5.43;4.93;;;29.50;59.00;;;;;;5143196;27;20477;-42
2021/09/08 00:51:30;;;;;;;7.17;5.43;;;29.50;56.20;;;;;;5143485;28;20476;-42
2021/09/08 00:54:01;;;;;;;6.27;5.67;;;29.30;57.00;;;;;;5142133;27;20546;-42
2021/09/08 00:56:34;;;;;;;7.07;6.37;;;29.30;57.00;;;;;;5142154;27;20448;-42
2021/09/08 00:59:06;;;;;;;6.13;5.53;;;29.30;56.90;;;;;;5144076;27;20495;-42
2021/09/08 01:01:39;;;;;;;6.50;6.00;;;29.30;56.60;;;;;;5143283;27;20447;-42
2021/09/08 01:04:13;;;;;;;7.20;5.33;;;29.30;56.20;;;;;;5141869;27;20443;-41
2021/09/08 01:06:44;;;;;;;6.63;5.87;;;29.20;57.60;;;;;;5143118;28;20449;-42
2021/09/08 01:09:16;;;;;;;6.17;5.67;;;29.20;56.80;;;;;;5142142;28;20451;-41
2021/09/08 01:11:47;;;;;;;6.00;5.53;;;29.20;55.70;;;;;;5143191;27;20440;-41
2021/09/08 01:14:18;;;;;;;6.33;5.70;;;29.20;56.30;;;;;;5141845;28;21293;-42
2021/09/08 01:16:51;;;;;;;6.50;5.90;;;29.10;56.60;;;;;;5143027;28;20448;-41
2021/09/08 01:19:24;;;;;;;10.43;6.77;;;29.00;58.70;;;;;;5142282;27;20481;-41
2021/09/08 01:21:56;;;;;;;8.90;8.00;;;28.90;58.40;;;;;;5143208;27;20483;-41
2021/09/08 01:24:28;;;;;;;8.57;7.73;;;28.70;59.90;;;;;;5141241;28;20582;-41
2021/09/08 01:26:59;;;;;;;7.27;6.57;;;28.60;61.40;;;;;;5142815;27;20470;-42
2021/09/08 01:29:30;;;;;;;8.17;7.50;;;28.50;60.00;;;;;;5143263;27;20463;-42
2021/09/08 01:32:02;;;;;;;9.30;8.40;;;28.50;57.40;;;;;;5143151;28;20536;-41
2021/09/08 01:34:33;;;;;;;8.50;7.03;;;28.40;59.30;;;;;;5145209;27;20453;-41
2021/09/08 01:37:04;;;;;;;6.73;6.13;;;28.30;60.10;;;;;;5144711;27;20774;-41
2021/09/08 01:39:37;;;;;;;8.07;6.50;;;28.30;60.00;;;;;;5143625;27;20481;-42
2021/09/08 01:42:08;;;;;;;6.60;6.00;;;28.20;61.80;;;;;;5146276;27;20448;-42
2021/09/08 01:44:39;;;;;;;6.83;6.20;;;28.10;59.40;;;;;;5145546;27;20461;-42
2021/09/08 01:47:10;;;;;;;8.87;6.63;;;28.00;62.30;;;;;;5146150;27;20461;-42
2021/09/08 01:49:41;;;;;;;6.80;6.30;;;27.90;61.90;;;;;;5146313;27;20445;-42
2021/09/08 01:52:11;;;;;;;9.87;6.60;;;27.70;64.10;;;;;;5145105;27;20450;-42
2021/09/08 01:54:44;;;;;;;6.90;6.40;;;27.60;64.70;;;;;;5143853;27;20477;-42
2021/09/08 01:57:15;;;;;;;6.60;6.00;;;27.40;65.10;;;;;;5146689;27;20433;-42
2021/09/08 01:59:46;;;;;;;6.83;6.17;;;27.30;64.50;;;;;;5145286;27;20620;-42
2021/09/08 02:02:17;;;;;;;7.23;6.30;;;27.10;65.90;;;;;;5146531;27;20486;-42
2021/09/08 02:04:48;;;;;;;7.73;7.03;;;26.90;71.50;;;;;;5145078;27;20464;-43
2021/09/08 02:07:19;;;;;;;6.90;6.30;;;26.80;69.80;;;;;;5145494;27;20458;-42
2021/09/08 02:09:52;;;;;;;7.23;6.63;;;26.70;70.80;;;;;;5145271;27;20443;-42
2021/09/08 02:12:23;;;;;;;6.80;6.30;;;26.50;73.30;;;;;;5146413;27;20444;-42
2021/09/08 02:14:54;;;;;;;7.30;6.70;;;26.30;75.40;;;;;;5144412;27;20453;-41
2021/09/08 02:17:25;;;;;;;7.10;6.40;;;26.10;74.60;;;;;;5145046;27;20448;-41
2021/09/08 02:19:56;;;;;;;7.97;7.23;;;26.10;72.00;;;;;;5145454;27;20482;-42
2021/09/08 02:22:27;;;;;;;8.47;7.33;;;26.00;69.10;;;;;;5145760;27;20521;-42
2021/09/08 02:24:59;;;;;;;7.00;6.40;;;26.00;69.70;;;;;;5142392;27;20450;-43
2021/09/08 02:27:30;;;;;;;8.00;7.33;;;25.90;71.60;;;;;;5145297;27;20431;-42
2021/09/08 02:30:01;;;;;;;7.67;7.10;;;25.80;71.30;;;;;;5144570;27;20474;-42
2021/09/08 02:32:33;;;;;;;8.67;7.87;;;25.70;71.20;;;;;;5145883;27;20584;-42
2021/09/08 02:35:04;;;;;;;10.23;8.07;;;25.60;71.20;;;;;;5141398;27;20481;-42
2021/09/08 02:37:35;;;;;;;8.00;7.20;;;25.50;74.20;;;;;;5145068;27;20522;-41
2021/09/08 02:40:09;;;;;;;8.90;7.70;;;25.40;75.60;;;;;;5144839;27;20760;-42
2021/09/08 02:42:40;;;;;;;9.53;8.10;;;25.30;74.90;;;;;;5142568;27;20442;-41
2021/09/08 02:45:12;;;;;;;8.33;7.63;;;25.30;75.40;;;;;;5144422;27;20501;-42
2021/09/08 02:47:42;;;;;;;8.77;7.97;;;25.20;74.50;;;;;;5145328;27;20449;-42
2021/09/08 02:50:14;;;;;;;9.40;8.20;;;25.10;76.90;;;;;;5146906;27;20510;-42
2021/09/08 02:52:45;;;;;;;8.07;7.37;;;25.00;75.50;;;;;;5144565;27;20474;-42
2021/09/08 02:55:17;;;;;;;8.87;8.07;;;25.00;75.90;;;;;;5144539;27;20433;-42
2021/09/08 02:57:48;;;;;;;10.63;8.17;;;24.80;77.10;;;;;;5144554;27;20501;-41
2021/09/08 03:00:20;;;;;;;9.50;8.60;;;24.80;76.00;;;;;;5155996;27;20512;-42
2021/09/08 03:02:51;;;;;;;9.70;8.10;;;24.90;76.40;;;;;;5140802;27;20457;-41
2021/09/08 03:05:23;;;;;;;9.30;7.60;;;24.80;78.20;;;;;;5144447;27;20449;-41
2021/09/08 03:07:54;;;;;;;8.27;7.53;;;24.80;77.40;;;;;;5142776;27;20449;-42
2021/09/08 03:10:26;;;;;;;9.13;7.63;;;24.70;78.50;;;;;;5144259;27;20445;-41
2021/09/08 03:12:57;;;;;;;8.57;7.77;;;24.70;78.00;;;;;;5145137;27;20437;-42
2021/09/08 03:15:28;;;;;;;8.47;7.53;;;24.60;78.50;;;;;;5144604;27;20445;-42
2021/09/08 03:18:00;;;;;;;9.10;8.20;;;24.60;79.10;;;;;;5144387;27;20483;-41
2021/09/08 03:20:31;;;;;;;9.93;9.13;;;24.50;80.40;;;;;;5140818;27;20557;-42
2021/09/08 03:23:02;;;;;;;10.83;8.67;;;24.50;78.90;;;;;;5139897;27;20441;-41
2021/09/08 03:25:35;;;;;;;11.10;9.13;;;24.60;78.70;;;;;;5143469;27;20445;-41
2021/09/08 03:28:07;;;;;;;10.20;9.20;;;24.60;80.00;;;;;;5146130;27;20948;-42
2021/09/08 03:30:38;;;;;;;9.13;8.23;;;24.60;79.70;;;;;;5156950;27;20453;-42
2021/09/08 03:33:11;;;;;;;10.80;9.80;;;24.50;81.10;;;;;;5143744;27;20503;-42
2021/09/08 03:35:42;;;;;;;14.40;10.00;;;24.60;78.90;;;;;;5142186;27;20532;-42
2021/09/08 03:38:14;;;;;;;11.73;10.50;;;24.60;79.80;;;;;;5142414;27;20448;-42
2021/09/08 03:40:46;;;;;;;13.23;11.23;;;24.60;80.10;;;;;;5143987;27;20577;-42
2021/09/08 03:43:17;;;;;;;13.43;10.33;;;24.60;79.00;;;;;;5143968;27;20488;-42
2021/09/08 03:45:48;;;;;;;11.03;9.60;;;24.60;80.20;;;;;;5149303;27;20487;-42
2021/09/08 03:48:19;;;;;;;11.83;10.50;;;24.50;81.40;;;;;;5144066;27;20520;-42
2021/09/08 03:50:50;;;;;;;12.80;11.20;;;24.40;81.20;;;;;;5144006;27;20473;-42
2021/09/08 03:53:21;;;;;;;12.93;11.30;;;24.40;80.20;;;;;;5143194;27;20466;-42
2021/09/08 03:55:54;;;;;;;13.87;12.47;;;24.40;80.70;;;;;;5143032;27;20461;-41
2021/09/08 03:58:25;;;;;;;14.70;12.37;;;24.40;80.50;;;;;;5140340;27;20817;-41
2021/09/08 04:00:56;;;;;;;16.20;13.30;;;24.40;81.20;;;;;;5143507;27;20480;-41
2021/09/08 04:03:27;;;;;;;16.90;12.50;;;24.30;80.40;;;;;;5144088;27;20508;-41
2021/09/08 04:05:58;;;;;;;14.13;12.43;;;24.40;80.20;;;;;;5143809;27;20459;-41
2021/09/08 04:08:29;;;;;;;14.90;13.10;;;24.30;80.30;;;;;;5141215;27;20476;-42
2021/09/08 04:11:02;;;;;;;16.73;14.30;;;24.30;80.40;;;;;;5143543;27;20452;-42
2021/09/08 04:13:33;;;;;;;15.50;13.63;;;24.40;80.40;;;;;;5143448;27;20445;-42
2021/09/08 04:16:04;;;;;;;15.47;13.90;;;24.30;80.30;;;;;;5143430;27;21009;-41
2021/09/08 04:18:35;;;;;;;15.10;12.60;;;24.30;81.70;;;;;;5142025;27;20456;-42
2021/09/08 04:21:06;;;;;;;15.40;13.80;;;24.20;82.00;;;;;;5143383;27;21036;-42
2021/09/08 04:23:40;;;;;;;17.07;14.53;;;24.00;81.40;;;;;;5141833;27;20475;-42
2021/09/08 04:26:13;;;;;;;18.27;15.63;;;24.00;81.60;;;;;;5143406;27;20513;-42
2021/09/08 04:29:00;;;;;;;18.07;14.57;;;24.00;82.10;;;;;;5141645;28;20505;-42
2021/09/08 04:31:31;;;;;;;17.80;15.07;;;23.90;83.20;;;;;;5143861;27;20521;-42
2021/09/08 04:34:06;;;;;;;17.70;14.77;;;23.90;83.60;;;;;;5142438;27;20452;-42
2021/09/08 04:36:37;;;;;;;17.97;16.07;;;23.90;83.00;;;;;;5143840;28;20445;-42
2021/09/08 04:39:08;;;;;;;18.03;16.20;;;23.90;83.60;;;;;;5143202;27;22025;-43
2021/09/08 04:41:41;;;;;;;17.10;15.30;;;23.90;83.00;;;;;;5143932;28;20504;-41
2021/09/08 04:44:12;;;;;;;19.70;16.63;;;23.90;83.70;;;;;;5142490;27;20814;-40
2021/09/08 04:46:43;;;;;;;19.30;17.30;;;23.90;83.10;;;;;;5142469;28;20480;-42
2021/09/08 04:49:14;;;;;;;22.80;17.33;;;24.00;83.80;;;;;;5143205;27;20445;-41
2021/09/08 04:51:45;;;;;;;20.50;17.73;;;24.00;83.30;;;;;;5141400;28;20460;-42
2021/09/08 04:54:16;;;;;;;21.67;18.50;;;23.90;83.70;;;;;;5139690;28;20501;-42
2021/09/08 04:56:48;;;;;;;24.50;18.57;;;23.90;84.20;;;;;;5142404;27;20511;-42
2021/09/08 04:59:19;;;;;;;21.20;18.87;;;23.80;83.80;;;;;;5138904;28;20477;-42
2021/09/08 05:01:50;;;;;;;22.97;18.67;;;23.80;84.10;;;;;;5142723;28;20595;-41
2021/09/08 05:04:22;;;;;;;20.47;18.20;;;23.80;84.00;;;;;;5141785;27;20440;-41
2021/09/08 05:06:52;;;;;;;21.27;18.27;;;23.80;85.40;;;;;;5142041;28;20464;-42
2021/09/08 05:09:23;;;;;;;21.47;19.17;;;23.80;85.10;;;;;;5143663;27;20449;-42
2021/09/08 05:11:56;;;;;;;22.27;19.87;;;23.80;84.70;;;;;;5147453;27;20445;-42
2021/09/08 05:14:27;;;;;;;22.70;18.13;;;23.70;86.00;;;;;;5146016;27;20809;-41
2021/09/08 05:16:58;;;;;;;20.63;18.50;;;23.70;85.30;;;;;;5145084;27;20445;-42
2021/09/08 05:19:29;;;;;;;24.77;18.90;;;23.70;85.30;;;;;;5146102;27;20487;-42
2021/09/08 05:22:00;;;;;;;24.20;19.43;;;23.70;85.50;;;;;;5145682;27;20519;-42
2021/09/08 05:24:31;;;;;;;22.60;19.87;;;23.80;85.40;;;;;;5144797;27;20482;-42
2021/09/08 05:27:04;;;;;;;22.13;19.80;;;23.80;84.90;;;;;;5147313;27;20503;-42
2021/09/08 05:29:34;;;;;;;22.90;19.57;;;23.80;85.30;;;;;;5145760;27;20443;-41
2021/09/08 05:32:06;;;;;;;22.10;19.97;;;23.80;85.90;;;;;;5144500;27;20537;-42
2021/09/08 05:34:38;;;;;;;23.53;20.03;;;23.80;85.30;;;;;;5142015;27;20452;-42
2021/09/08 05:37:09;;;;;;;26.97;20.90;;;23.70;86.10;;;;;;5146159;27;20444;-42
2021/09/08 05:39:40;;;;;;;25.77;21.67;;;23.70;86.20;;;;;;5142302;27;20497;-42
2021/09/08 05:42:13;;;;;;;25.97;21.10;;;23.70;85.00;;;;;;5142347;27;20529;-42
2021/09/08 05:44:44;;;;;;;28.77;22.00;;;23.80;85.70;;;;;;5144830;27;20460;-41
2021/09/08 05:47:15;;;;;;;32.27;23.67;;;23.90;84.40;;;;;;5146564;27;20521;-41
2021/09/08 05:49:46;;;;;;;25.93;22.90;;;23.90;84.80;;;;;;5142559;27;20453;-42
2021/09/08 05:52:17;;;;;;;26.80;23.37;;;24.00;83.50;;;;;;5144408;27;20452;-42
2021/09/08 05:54:48;;;;;;;30.30;23.77;;;24.00;83.70;;;;;;5145643;27;20480;-42
2021/09/08 05:57:23;;;;;;;26.50;23.70;;;24.00;83.30;;;;;;5144687;27;20481;-41
2021/09/08 05:59:54;;;;;;;29.30;24.07;;;24.00;83.80;;;;;;5144123;27;20448;-42
2021/09/08 06:02:25;;;;;;;29.13;23.67;;;24.00;83.90;;;;;;5146014;27;20531;-42
2021/09/08 06:04:56;;;;;;;24.63;22.27;;;24.00;83.60;;;;;;5146180;27;20541;-42
2021/09/08 06:07:27;;;;;;;27.07;22.90;;;24.00;83.50;;;;;;5145676;27;20436;-40
2021/09/08 06:09:58;;;;;;;24.80;21.60;;;24.00;83.60;;;;;;5141927;27;20478;-41
2021/09/08 06:12:31;;;;;;;23.93;21.30;;;24.00;83.00;;;;;;5141324;27;20509;-42
2021/09/08 06:15:02;;;;;;;23.60;20.47;;;24.00;83.10;;;;;;5144688;27;20449;-41
2021/09/08 06:17:34;;;;;;;22.23;19.83;;;24.00;82.80;;;;;;5146127;27;20461;-41
2021/09/08 06:20:06;;;;;;;23.90;19.97;;;24.00;82.60;;;;;;5145342;27;20449;-42
2021/09/08 06:22:37;;;;;;;22.40;20.10;;;24.00;82.70;;;;;;5145265;27;20488;-42
2021/09/08 06:25:09;;;;;;;20.30;18.20;;;24.00;82.30;;;;;;5142486;27;20472;-41
2021/09/08 06:27:42;;;;;;;20.07;17.97;;;23.90;82.90;;;;;;5143735;27;20944;-41
2021/09/08 06:30:14;;;;;;;23.20;18.40;;;23.70;83.40;;;;;;5144493;27;20952;-42
2021/09/08 06:32:45;;;;;;;23.87;17.73;;;23.70;82.80;;;;;;5143802;27;20477;-42
2021/09/08 06:35:17;;;;;;;22.30;17.87;;;23.70;82.50;;;;;;5143938;27;20460;-42
2021/09/08 06:37:48;;;;;;;19.37;17.33;;;23.60;82.40;;;;;;5140933;27;20471;-42
2021/09/08 06:40:19;;;;;;;19.60;17.50;;;23.60;82.10;;;;;;5144838;27;20477;-41
2021/09/08 06:42:51;;;;;;;19.40;17.40;;;23.60;82.10;;;;;;5144077;27;20488;-42
2021/09/08 06:45:25;;;;;;;21.23;18.40;;;23.60;81.40;;;;;;5143050;27;20448;-42
2021/09/08 06:47:56;;;;;;;19.17;17.17;;;23.60;81.70;;;;;;5144934;27;20513;-42
2021/09/08 06:50:27;;;;;;;21.50;18.60;;;23.50;81.70;;;;;;5145347;27;20506;-42
2021/09/08 06:52:58;;;;;;;19.97;17.90;;;23.50;82.20;;;;;;5144463;27;20445;-42
2021/09/08 06:55:30;;;;;;;20.50;17.60;;;23.40;82.50;;;;;;5144389;27;20493;-42
2021/09/08 06:58:02;;;;;;;20.00;17.90;;;23.30;83.10;;;;;;5144953;27;20497;-42
2021/09/08 07:00:33;;;;;;;21.53;18.77;;;23.20;85.10;;;;;;5145109;27;20441;-42
2021/09/08 07:03:05;;;;;;;23.27;18.77;;;23.10;86.20;;;;;;5144989;27;20563;-42
2021/09/08 07:05:37;;;;;;;20.07;17.97;;;22.90;87.10;;;;;;5145394;27;20507;-42
2021/09/08 07:08:09;;;;;;;18.77;16.53;;;22.90;86.40;;;;;;5142665;27;20440;-42
2021/09/08 07:10:40;;;;;;;20.47;17.83;;;22.80;86.70;;;;;;5141074;27;20437;-42
2021/09/08 07:13:13;;;;;;;21.77;18.80;;;22.80;86.40;;;;;;5140985;27;20445;-42
2021/09/08 07:15:44;;;;;;;20.93;18.83;;;22.90;87.30;;;;;;5143542;27;20559;-43
2021/09/08 07:18:15;;;;;;;20.37;18.27;;;22.90;87.20;;;;;;5144441;27;20495;-42
2021/09/08 07:20:46;;;;;;;22.80;18.50;;;22.80;87.20;;;;;;5144949;27;20537;-42
2021/09/08 07:23:17;;;;;;;21.07;18.83;;;22.70;89.20;;;;;;5144516;27;20488;-42
2021/09/08 07:25:48;;;;;;;21.93;19.47;;;22.60;88.60;;;;;;5141342;27;20441;-42
2021/09/08 07:28:20;;;;;;;24.50;19.40;;;22.70;86.20;;;;;;5144025;27;20452;-42
2021/09/08 07:30:53;;;;;;;22.80;20.40;;;22.70;85.60;;;;;;5144062;27;20482;-42
2021/09/08 07:33:26;;;;;;;22.00;19.53;;;22.70;86.30;;;;;;5145032;27;20452;-42
2021/09/08 07:35:57;;;;;;;22.30;20.00;;;22.70;85.10;;;;;;5145263;27;20451;-42
2021/09/08 07:38:28;;;;;;;22.77;18.97;;;22.70;83.80;;;;;;5143754;27;20433;-42
2021/09/08 07:40:58;;;;;;;21.70;18.73;;;22.70;83.50;;;;;;5144552;27;20450;-42
2021/09/08 07:43:31;;;;;;;21.53;19.13;;;22.70;83.30;;;;;;5144574;27;20491;-42
2021/09/08 07:46:02;;;;;;;20.47;18.30;;;22.60;86.70;;;;;;5144669;27;20449;-41
2021/09/08 07:48:33;;;;;;;19.63;17.60;;;22.60;84.10;;;;;;5143914;27;20455;-42
2021/09/08 07:51:04;;;;;;;22.90;18.03;;;22.50;86.40;;;;;;5144503;27;20459;-42
2021/09/08 07:53:36;;;;;;;20.67;18.43;;;22.50;87.10;;;;;;5144787;27;20460;-42
2021/09/08 07:56:07;;;;;;;20.70;18.47;;;22.40;88.30;;;;;;5144274;27;20590;-42
2021/09/08 07:58:40;;;;;;;19.90;17.97;;;22.40;87.90;;;;;;5143768;27;20452;-41
2021/09/08 08:01:11;;;;;;;23.00;18.57;;;22.40;90.20;;;;;;5144076;27;20490;-42
2021/09/08 08:03:42;;;;;;;20.23;17.57;;;22.30;90.10;;;;;;5143209;27;20499;-42
2021/09/08 08:06:13;;;;;;;20.93;18.70;;;22.20;90.20;;;;;;5144158;27;20441;-42
2021/09/08 08:23:34;;;;;;;24.50;19.23;;;22.00;91.30;;;;;;5144149;27;20486;-42
2021/09/08 08:26:05;;;;;;;21.10;18.87;;;22.10;91.30;;;;;;5142951;27;20448;-41
2021/09/08 08:28:36;;;;;;;21.13;18.80;;;22.00;91.30;;;;;;5140533;27;20479;-41
2021/09/08 08:31:07;;;;;;;22.43;18.20;;;22.00;91.60;;;;;;5143573;28;20488;-42
2021/09/08 08:33:38;;;;;;;20.40;18.20;;;22.00;91.30;;;;;;5143867;27;20478;-42
2021/09/08 08:36:09;;;;;;;18.40;16.50;;;22.00;91.40;;;;;;5143697;28;20459;-41
2021/09/08 08:38:44;;;;;;;21.23;18.30;;;22.10;90.50;;;;;;5143932;27;20448;-42
2021/09/08 08:41:15;;;;;;;21.50;18.30;;;22.00;91.30;;;;;;5132903;28;20515;-41
2021/09/08 08:43:45;;;;;;;20.53;18.30;;;22.00;91.10;;;;;;5145196;27;20480;-43
2021/09/08 08:46:17;;;;;;;23.60;19.50;;;22.00;92.40;;;;;;5146699;27;20472;-42
2021/09/08 08:48:49;;;;;;;21.90;19.03;;;22.10;91.50;;;;;;5147763;27;20445;-42
2021/09/08 08:51:20;;;;;;;21.10;18.03;;;22.10;92.70;;;;;;5137042;27;20912;-42
2021/09/08 08:53:52;;;;;;;21.57;18.33;;;22.00;93.60;;;;;;5147075;27;20500;-42
2021/09/08 08:56:23;;;;;;;25.17;20.20;;;22.00;94.10;;;;;;5147566;27;20444;-41
2021/09/08 08:58:55;;;;;;;22.87;20.50;;;21.90;92.20;;;;;;5146744;27;20456;-42
2021/09/08 09:01:28;;;;;;;23.87;20.57;;;22.00;93.40;;;;;;5147330;27;20492;-42
2021/09/08 09:04:04;;;;;;;26.03;21.80;;;21.90;92.80;;;;;;5147265;27;20776;-42
2021/09/08 09:06:38;;;;;;;27.33;21.30;;;21.90;92.70;;;;;;5148552;27;20447;-41
2021/09/08 09:09:12;;;;;;;25.53;21.03;;;21.90;94.30;;;;;;5146942;27;21022;-42
2021/09/08 09:11:47;;;;;;;23.07;19.83;;;21.80;94.80;;;;;;5131599;27;20452;-42
2021/09/08 09:14:19;;;;;;;26.40;21.63;;;21.80;96.00;;;;;;5146366;27;20452;-41
2021/09/08 09:16:50;;;;;;;26.70;21.60;;;21.70;97.60;;;;;;5144501;27;20445;-41
2021/09/08 09:19:21;;;;;;;24.17;20.80;;;21.50;96.50;;;;;;5146968;27;20480;-41
2021/09/08 09:21:55;;;;;;;24.73;19.90;;;21.50;96.70;;;;;;5146815;27;20437;-41
2021/09/08 09:24:30;;;;;;;26.03;21.63;;;21.50;97.10;;;;;;5146215;27;20471;-42
2021/09/08 09:27:03;;;;;;;23.37;20.17;;;21.50;99.50;;;;;;5147172;27;20419;-41
2021/09/08 09:29:36;;;;;;;21.93;19.63;;;21.30;99.60;;;;;;5145646;27;20788;-42
2021/09/08 09:32:08;;;;;;;26.00;21.77;;;21.20;99.90;;;;;;5146635;27;20477;-41
2021/09/08 09:34:40;;;;;;;22.70;20.27;;;21.10;99.90;;;;;;5144714;27;20435;-42
2021/09/08 09:37:11;;;;;;;25.90;21.97;;;21.00;99.90;;;;;;5146177;27;20429;-41
2021/09/08 09:39:44;;;;;;;23.90;20.30;;;20.80;99.90;;;;;;5146370;27;20528;-42
2021/09/08 09:42:16;;;;;;;26.50;21.50;;;20.80;99.90;;;;;;5146453;27;20453;-42
2021/09/08 09:44:47;;;;;;;25.07;20.80;;;20.60;99.90;;;;;;5146069;27;20450;-41
2021/09/08 09:47:21;;;;;;;24.83;21.40;;;20.50;99.90;;;;;;5145951;27;20453;-41
2021/09/08 09:49:55;;;;;;;23.97;21.07;;;20.40;99.90;;;;;;5145562;27;20449;-41
2021/09/08 09:52:26;;;;;;;25.07;21.20;;;20.20;99.90;;;;;;5145576;27;20468;-42
2021/09/08 09:54:59;;;;;;;27.27;21.40;;;20.20;99.90;;;;;;5144456;27;20437;-41
2021/09/08 09:57:30;;;;;;;24.97;21.87;;;20.10;99.90;;;;;;5145472;27;20442;-42
2021/09/08 10:00:01;;;;;;;25.03;21.97;;;20.00;99.90;;;;;;5146456;27;20449;-42
2021/09/08 10:02:32;;;;;;;26.00;20.93;;;19.90;99.90;;;;;;5145552;27;20457;-41
2021/09/08 10:05:05;;;;;;;29.17;22.80;;;19.80;99.90;;;;;;5142154;27;20431;-42
2021/09/08 10:07:37;;;;;;;26.83;22.50;;;19.70;99.90;;;;;;5142256;27;20486;-41
2021/09/08 10:10:16;;;;;;;28.10;21.80;;;19.70;99.90;;;;;;5145613;27;20941;-41
2021/09/08 10:12:51;;;;;;;28.37;22.23;;;19.60;99.90;;;;;;5145602;27;20444;-41
2021/09/08 10:15:23;;;;;;;30.10;23.73;;;19.60;99.90;;;;;;5142699;27;20513;-41
2021/09/08 10:17:55;;;;;;;29.83;22.83;;;19.60;99.90;;;;;;5145874;27;20557;-41
2021/09/08 10:20:26;;;;;;;29.90;22.87;;;19.60;99.90;;;;;;5145794;27;20445;-41
2021/09/08 10:22:56;;;;;;;28.00;22.53;;;19.50;99.90;;;;;;5144763;27;20964;-41
2021/09/08 10:25:29;;;;;;;28.23;23.03;;;19.40;99.90;;;;;;5141961;27;20420;-41
2021/09/08 10:28:00;;;;;;;34.43;24.27;;;19.40;99.90;;;;;;5142289;27;20485;-41
2021/09/08 10:30:42;;;;;;;29.17;23.20;;;19.30;99.90;;;;;;5144816;27;20419;-41
2021/09/08 10:33:14;;;;;;;28.30;24.00;;;19.30;99.90;;;;;;5144088;27;20454;-41
2021/09/08 10:35:45;;;;;;;29.37;23.40;;;19.30;99.90;;;;;;5140856;27;20934;-41
2021/09/08 10:38:23;;;;;;;30.70;23.30;;;19.30;99.90;;;;;;5141235;27;20445;-41
2021/09/08 10:40:55;;;;;;;27.67;23.17;;;19.20;99.90;;;;;;5145612;27;20408;-41
2021/09/08 10:43:30;;;;;;;27.37;23.77;;;19.10;99.90;;;;;;5144775;27;20896;-41
2021/09/08 10:46:02;;;;;;;27.20;23.10;;;19.10;99.90;;;;;;5145298;27;20449;-42
2021/09/08 10:48:38;;;;;;;26.57;22.23;;;19.00;99.90;;;;;;5145129;27;20494;-41
2021/09/08 10:51:10;;;;;;;29.47;24.03;;;18.90;99.90;;;;;;5145299;27;20448;-41
2021/09/08 10:53:42;;;;;;;26.27;22.83;;;18.90;99.90;;;;;;5144419;27;20455;-41
2021/09/08 10:56:17;;;;;;;30.33;23.67;;;19.00;99.90;;;;;;5143510;27;20504;-41
2021/09/08 10:59:02;;;;;;;28.30;21.80;;;18.90;99.90;;;;;;5145513;27;20467;-41
2021/09/08 11:01:33;;;;;;;32.43;23.80;;;18.80;99.90;;;;;;5145193;27;20470;-42
2021/09/08 11:04:05;;;;;;;29.50;24.20;;;18.80;99.90;;;;;;5144245;27;20515;-41
2021/09/08 11:06:41;;;;;;;30.23;23.03;;;18.60;99.90;;;;;;5144508;27;20535;-42
2021/09/08 11:09:14;;;;;;;28.93;22.67;;;18.60;99.90;;;;;;5143644;27;21289;-42
2021/09/08 11:11:54;;;;;;;30.67;24.33;;;18.60;99.90;;;;;;5145481;27;20956;-41
2021/09/08 11:14:48;;;;;;;27.47;22.60;;;18.50;99.90;;;;;;5139868;27;20452;-41
2021/09/08 11:17:23;;;;;;;27.63;22.07;;;18.40;99.90;;;;;;5145193;27;20436;-42
2021/09/08 11:19:55;;;;;;;29.03;22.17;;;18.40;99.90;;;;;;5144350;27;20415;-42
2021/09/08 11:22:26;;;;;;;28.97;22.97;;;18.40;99.90;;;;;;5140917;27;20449;-42
2021/09/08 11:25:06;;;;;;;29.90;23.43;;;18.40;99.90;;;;;;5142716;27;20505;-41
2021/09/08 11:27:40;;;;;;;31.07;24.43;;;18.30;99.90;;;;;;5142040;27;20419;-41
2021/09/08 11:30:13;;;;;;;28.47;23.83;;;18.30;99.90;;;;;;5144322;27;20480;-41
2021/09/08 11:32:58;;;;;;;26.40;23.10;;;18.30;99.90;;;;;;5142947;27;20519;-41
2021/09/08 11:35:40;;;;;;;32.20;24.70;;;18.20;99.90;;;;;;5141760;27;20449;-41
2021/09/08 11:38:14;;;;;;;27.63;22.47;;;18.20;99.90;;;;;;5144022;27;20461;-41
2021/09/08 11:40:48;;;;;;;26.40;21.60;;;18.10;99.90;;;;;;5142802;27;20441;-42
2021/09/08 11:43:34;;;;;;;28.43;23.43;;;18.10;99.90;;;;;;5143898;27;20892;-42
2021/09/08 11:46:14;;;;;;;28.30;22.60;;;18.10;99.90;;;;;;5127874;27;20493;-41
2021/09/08 11:48:45;;;;;;;29.10;23.83;;;18.10;99.90;;;;;;5144376;27;20424;-42
2021/09/08 11:51:18;;;;;;;30.17;23.93;;;18.00;99.90;;;;;;5142688;27;20776;-42
2021/09/08 11:53:51;;;;;;;30.97;23.40;;;18.00;99.90;;;;;;5142962;27;20453;-42
2021/09/08 11:56:24;;;;;;;29.37;23.50;;;17.90;99.90;;;;;;5143687;27;20484;-42
2021/09/08 11:58:58;;;;;;;30.13;23.70;;;17.80;99.90;;;;;;5141711;27;20427;-42
2021/09/08 12:01:34;;;;;;;26.63;21.80;;;17.70;99.90;;;;;;5140710;27;20460;-41
2021/09/08 12:04:06;;;;;;;28.50;22.90;;;17.70;99.90;;;;;;5139358;27;20503;-41
2021/09/08 12:06:57;;;;;;;27.30;23.03;;;17.70;99.90;;;;;;5143620;27;20418;-41
2021/09/08 12:09:29;;;;;;;28.30;23.93;;;17.70;99.90;;;;;;5142891;27;20743;-41
2021/09/08 12:12:01;;;;;;;29.50;23.97;;;17.60;99.90;;;;;;5144439;27;20437;-42
2021/09/08 12:14:43;;;;;;;29.00;23.17;;;17.70;99.90;;;;;;5142859;27;20468;-41
2021/09/08 12:17:22;;;;;;;30.83;24.00;;;17.70;99.90;;;;;;5143979;27;20917;-41
2021/09/08 12:20:00;;;;;;;26.27;22.30;;;17.70;99.90;;;;;;5143430;27;20464;-42
2021/09/08 12:22:34;;;;;;;28.47;21.97;;;17.50;99.90;;;;;;5143883;27;20434;-41
2021/09/08 12:25:09;;;;;;;31.07;24.90;;;17.50;99.90;;;;;;5134527;28;20484;-41
2021/09/08 12:27:42;;;;;;;30.10;24.03;;;17.40;99.90;;;;;;5142474;27;20419;-41
2021/09/08 12:30:26;;;;;;;28.53;22.77;;;17.30;99.90;;;;;;5144086;27;20533;-41
2021/09/08 12:33:02;;;;;;;33.13;24.60;;;17.30;99.90;;;;;;5143246;27;20548;-41
2021/09/08 12:35:43;;;;;;;28.63;24.13;;;17.30;99.90;;;;;;5141140;28;20453;-41
2021/09/08 12:38:33;;;;;;;32.47;25.00;;;17.30;99.90;;;;;;5143780;28;20512;-41
2021/09/08 12:41:12;;;;;;;29.00;23.53;;;17.20;99.90;;;;;;5140100;27;20419;-41
2021/09/08 12:43:45;;;;;;;27.73;22.10;;;17.20;99.90;;;;;;5142309;27;20434;-41
2021/09/08 12:46:18;;;;;;;28.57;22.47;;;17.10;99.90;;;;;;5140203;28;20455;-41
2021/09/08 12:48:49;;;;;;;28.70;22.37;;;17.00;99.90;;;;;;5141057;28;20404;-42
2021/09/08 12:51:20;;;;;;;28.07;23.53;;;17.00;99.90;;;;;;5143258;27;20499;-41
2021/09/08 12:53:51;;;;;;;30.23;21.87;;;17.10;99.90;;;;;;5142888;27;20564;-41
2021/09/08 12:56:23;;;;;;;30.43;22.40;;;17.00;99.90;;;;;;5138109;28;20455;-42
2021/09/08 12:58:55;;;;;;;28.20;22.33;;;17.00;99.90;;;;;;5140241;27;20456;-41
2021/09/08 13:01:28;;;;;;;29.77;22.87;;;16.90;99.90;;;;;;5139928;27;20490;-41
2021/09/08 13:03:59;;;;;;;32.70;23.67;;;16.90;99.90;;;;;;5139917;28;20986;-41
2021/09/08 13:06:31;;;;;;;30.90;22.23;;;16.80;99.90;;;;;;5143705;27;20451;-41
2021/09/08 13:09:01;;;;;;;29.50;21.87;;;16.70;99.90;;;;;;5141981;27;20435;-41
2021/09/08 13:11:32;;;;;;;31.03;22.60;;;16.70;99.90;;;;;;5140949;27;20445;-41
2021/09/08 13:14:04;;;;;;;30.20;23.00;;;16.60;99.90;;;;;;5138387;28;20454;-42